Cape Lookout Natl Seashore, North Carolina
Current Conditions -  °F | °C
As of 2:56 AM on Friday 31 Oct 2014 (Local Time) from KNBT Reporting Station
Few Clouds Few Clouds  
Wind Chill: 64°   Ceiling: Unl
Heat Index: 64°   Visibility: 9mi
Dew Point: 48°   Wind: 17mph
Humidity: 56%   Direction: 20°NNE
Pressure: 29.91"   Gusts: 23mph
Location:  34.88°N, 76.29°W
Report Text: KNBT 310656Z AUTO 02015G20KT 9SM FEW060 18/09 A2991 RMK AO2 SLP132 T01780089 PNO
Loading
Personal Weather Stations






























Interactive Weather Map
Tropical Storm Tracking
New forecast layout! Learn more

10-Day Weather Forecast

Advertisements
Track Severe Weather on mobile